createdAt,value
2023-01-01T00:02:00.439Z,81.23
2023-01-01T00:04:28.979Z,66.60
2023-01-01T00:06:57.114Z,63.53
2023-01-01T00:09:41.745Z,72.07
2023-01-01T00:12:11.238Z,68.13
2023-01-01T00:14:42.926Z,64.53
2023-01-01T00:17:11.351Z,65.80
2023-01-01T00:19:39.560Z,67.70
2023-01-01T00:22:43.777Z,69.17
2023-01-01T00:24:55.581Z,66.07
2023-01-01T00:27:25.115Z,67.97
2023-01-01T00:29:53.165Z,67.37
2023-01-01T00:32:23.005Z,68.53
2023-01-01T00:34:51.619Z,72.43
2023-01-01T00:37:19.795Z,63.77
2023-01-01T00:39:48.153Z,65.73
2023-01-01T00:42:16.174Z,61.90
2023-01-01T00:44:45.713Z,65.40
2023-01-01T00:47:13.873Z,64.90
2023-01-01T00:49:41.948Z,65.00
2023-01-01T00:52:10.051Z,56.23
2023-01-01T00:54:38.085Z,62.07
2023-01-01T00:57:06.349Z,60.57
2023-01-01T00:59:34.531Z,59.63
2023-01-01T01:02:04.232Z,59.67
2023-01-01T01:04:32.540Z,55.97
2023-01-01T01:07:00.634Z,54.80
2023-01-01T01:09:28.677Z,91.20
2023-01-01T01:12:18.691Z,62.43
2023-01-01T01:14:44.878Z,57.57
2023-01-01T01:17:14.391Z,46.20
2023-01-01T01:19:42.488Z,46.70
2023-01-01T01:22:10.574Z,52.37
2023-01-01T01:24:38.658Z,55.60
2023-01-01T01:27:06.705Z,56.33
2023-01-01T01:29:34.798Z,57.83
2023-01-01T01:32:03.426Z,59.13
2023-01-01T01:34:32.918Z,60.40
2023-01-01T01:37:01.094Z,63.57
2023-01-01T01:39:29.139Z,59.90
2023-01-01T01:41:57.217Z,59.53
2023-01-01T01:44:54.835Z,61.33
2023-01-01T01:47:29.464Z,51.33
2023-01-01T01:50:05.188Z,49.00
2023-01-01T01:52:36.589Z,49.70
2023-01-01T01:55:09.148Z,49.97
2023-01-01T01:57:40.377Z,46.17
2023-01-01T02:00:11.611Z,45.60
2023-01-01T02:02:44.965Z,45.47
2023-01-01T02:05:14.652Z,53.23
2023-01-01T02:07:42.871Z,49.50
2023-01-01T02:10:11.439Z,48.00
2023-01-01T02:12:39.719Z,45.70
2023-01-01T02:15:10.179Z,44.60
2023-01-01T02:17:45.511Z,44.87
2023-01-01T02:20:27.166Z,45.07
2023-01-01T02:23:30.576Z,43.87
2023-01-01T02:26:16.967Z,42.80
2023-01-01T02:28:53.308Z,41.67
2023-01-01T02:31:26.831Z,50.73
2023-01-01T02:34:00.444Z,47.13
2023-01-01T02:36:31.448Z,47.60
2023-01-01T02:39:03.079Z,45.87
2023-01-01T02:41:35.751Z,47.77
2023-01-01T02:46:34.390Z,48.30
2023-01-01T02:49:09.641Z,47.00
2023-01-01T02:51:48.357Z,47.97
2023-01-01T02:54:26.965Z,47.60
2023-01-01T02:57:05.628Z,45.97
2023-01-01T03:00:05.098Z,44.87
2023-01-01T03:02:46.722Z,45.20
2023-01-01T03:05:27.009Z,44.37
2023-01-01T03:08:05.395Z,44.70
2023-01-01T03:10:42.797Z,44.80
2023-01-01T03:13:17.518Z,43.10
2023-01-01T03:15:55.623Z,43.43
2023-01-01T03:18:29.044Z,46.10
2023-01-01T03:21:00.229Z,45.03
2023-01-01T03:23:35.781Z,44.63
2023-01-01T03:26:10.986Z,43.87
2023-01-01T03:28:46.049Z,46.90
2023-01-01T03:31:20.185Z,46.00
2023-01-01T03:33:52.953Z,45.27
2023-01-01T03:36:24.337Z,43.80
2023-01-01T03:38:56.789Z,46.53
2023-01-01T03:41:30.707Z,44.10
2023-01-01T03:44:08.488Z,44.23
2023-01-01T03:46:38.759Z,46.03
2023-01-01T03:49:11.488Z,45.70
2023-01-01T03:52:01.565Z,44.17
2023-01-01T03:54:38.853Z,48.63
2023-01-01T03:57:12.307Z,83.63
2023-01-01T03:59:47.616Z,82.10
2023-01-01T04:02:20.193Z,68.17
2023-01-01T04:04:49.854Z,60.17
2023-01-01T04:07:18.273Z,78.03
2023-01-01T04:09:50.916Z,61.00
2023-01-01T04:12:20.439Z,54.07
2023-01-01T04:14:48.696Z,53.23
2023-01-01T04:17:18.619Z,54.53
2023-01-01T04:19:53.149Z,56.47
2023-01-01T04:22:23.770Z,53.53
2023-01-01T04:24:52.074Z,51.50
2023-01-01T04:27:20.157Z,47.47
2023-01-01T04:29:48.482Z,49.40
2023-01-01T04:32:17.872Z,49.07
2023-01-01T04:34:46.012Z,49.37
2023-01-01T04:37:14.209Z,49.47
2023-01-01T04:39:42.683Z,50.33
2023-01-01T04:42:11.045Z,51.03
2023-01-01T04:44:39.185Z,52.13
2023-01-01T04:47:07.485Z,51.23
2023-01-01T04:49:37.005Z,52.93
2023-01-01T04:52:05.890Z,49.67
2023-01-01T04:54:34.012Z,48.50
2023-01-01T04:57:02.097Z,49.53
2023-01-01T04:59:31.017Z,45.60
2023-01-01T05:01:59.924Z,47.07
2023-01-01T05:04:28.534Z,48.53
2023-01-01T05:06:57.983Z,50.70
2023-01-01T05:09:26.146Z,48.97
2023-01-01T05:11:56.109Z,49.13
2023-01-01T05:14:24.263Z,51.07
2023-01-01T05:16:53.889Z,49.33
2023-01-01T05:19:22.006Z,48.17
2023-01-01T05:21:49.933Z,48.90
2023-01-01T05:24:19.310Z,51.20
2023-01-01T05:26:47.516Z,53.83
2023-01-01T05:29:17.478Z,56.07
2023-01-01T05:31:47.324Z,57.07
2023-01-01T05:34:15.669Z,55.47
2023-01-01T05:36:44.002Z,49.63
2023-01-01T05:39:13.822Z,47.57
2023-01-01T05:41:43.357Z,48.67
2023-01-01T05:44:11.889Z,47.93
2023-01-01T05:46:40.179Z,46.87
2023-01-01T05:49:11.087Z,49.97
2023-01-01T05:54:06.857Z,50.00
2023-01-01T05:56:35.048Z,48.87
2023-01-01T05:59:04.678Z,48.93
2023-01-01T06:01:33.434Z,48.97
2023-01-01T06:04:01.863Z,48.90
2023-01-01T06:06:33.251Z,48.23
2023-01-01T06:09:04.752Z,51.07
2023-01-01T06:11:33.487Z,49.80
2023-01-01T06:14:02.292Z,52.37
2023-01-01T06:16:32.868Z,50.07
2023-01-01T06:19:01.089Z,48.50
2023-01-01T06:21:30.383Z,48.57
2023-01-01T06:23:59.824Z,49.13
2023-01-01T06:26:30.347Z,51.17
2023-01-01T06:28:59.362Z,51.13
2023-01-01T06:31:28.596Z,53.13
2023-01-01T06:33:58.805Z,53.53
2023-01-01T06:36:27.509Z,53.07
2023-01-01T06:38:58.759Z,39.97
2023-01-01T06:41:28.287Z,41.27
2023-01-01T06:43:57.270Z,42.77
2023-01-01T06:46:27.241Z,42.23
2023-01-01T06:48:58.108Z,44.23
2023-01-01T06:51:28.251Z,44.77
2023-01-01T06:53:59.219Z,63.40
2023-01-01T06:56:27.429Z,91.37
2023-01-01T06:58:55.605Z,82.23
2023-01-01T07:01:25.711Z,53.33
2023-01-01T07:03:54.997Z,41.90
2023-01-01T07:06:25.518Z,39.50
2023-01-01T07:08:54.217Z,42.73
2023-01-01T07:11:22.703Z,35.27
2023-01-01T07:13:50.706Z,31.03
2023-01-01T07:16:19.137Z,29.60
2023-01-01T07:18:49.175Z,36.00
2023-01-01T07:21:29.947Z,39.60
2023-01-01T07:23:59.246Z,40.67
2023-01-01T07:26:28.628Z,39.87
2023-01-01T07:29:02.777Z,41.30
2023-01-01T07:31:34.963Z,40.70
2023-01-01T07:34:03.165Z,40.43
2023-01-01T07:36:32.663Z,40.33
2023-01-01T07:39:00.795Z,39.43
2023-01-01T07:41:28.869Z,38.53
2023-01-01T07:43:57.018Z,32.13
2023-01-01T07:46:25.239Z,34.77
2023-01-01T07:48:53.355Z,36.23
2023-01-01T07:51:21.431Z,37.00
2023-01-01T07:53:50.920Z,37.97
2023-01-01T07:56:19.120Z,44.77
2023-01-01T07:58:47.394Z,47.57
2023-01-01T08:01:16.075Z,46.57
2023-01-01T08:03:44.484Z,35.87
2023-01-01T08:06:14.365Z,33.97
2023-01-01T08:08:42.925Z,36.87
2023-01-01T08:11:12.440Z,35.63
2023-01-01T08:13:40.569Z,35.03
2023-01-01T08:16:09.573Z,34.23
2023-01-01T08:18:38.058Z,27.67
2023-01-01T08:21:07.014Z,26.87
2023-01-01T08:23:34.977Z,22.73
2023-01-01T08:26:03.638Z,25.00
2023-01-01T08:28:33.301Z,26.37
2023-01-01T08:31:01.530Z,25.93
2023-01-01T08:33:29.606Z,25.83
2023-01-01T08:35:57.793Z,24.17
2023-01-01T08:38:26.263Z,24.57
2023-01-01T08:40:54.470Z,24.97
2023-01-01T08:43:22.490Z,25.57
2023-01-01T08:45:52.010Z,25.67
2023-01-01T08:48:22.235Z,22.90
2023-01-01T08:50:54.895Z,24.43
2023-01-01T08:53:23.567Z,22.50
2023-01-01T09:10:46.304Z,24.43
2023-01-01T09:13:16.223Z,22.70
2023-01-01T09:15:44.913Z,24.00
2023-01-01T09:18:13.865Z,24.80
2023-01-01T09:20:42.356Z,24.67
2023-01-01T09:23:12.885Z,23.80
2023-01-01T09:25:41.466Z,24.37
2023-01-01T09:28:20.418Z,26.20
2023-01-01T09:30:51.621Z,23.83
2023-01-01T09:33:19.869Z,23.17
2023-01-01T09:35:47.956Z,22.03
2023-01-01T09:38:16.128Z,22.03
2023-01-01T09:40:54.709Z,20.27
2023-01-01T09:43:34.400Z,22.23
2023-01-01T09:46:06.603Z,21.50
2023-01-01T09:48:39.181Z,22.07
2023-01-01T09:51:14.932Z,22.67
2023-01-01T09:53:46.979Z,21.87
2023-01-01T09:56:20.015Z,22.30
2023-01-01T09:58:49.748Z,22.80
2023-01-01T10:01:30.548Z,24.10
2023-01-01T10:04:06.995Z,24.00
2023-01-01T10:06:41.012Z,22.87
2023-01-01T10:09:17.565Z,21.73
2023-01-01T10:11:56.159Z,22.77
2023-01-01T10:14:33.078Z,20.70
2023-01-01T10:17:04.067Z,20.97
2023-01-01T10:19:37.863Z,20.37
2023-01-01T10:22:12.061Z,22.57
2023-01-01T10:24:46.187Z,23.07
2023-01-01T10:27:28.060Z,20.03
2023-01-01T10:30:03.493Z,19.50
2023-01-01T10:32:35.142Z,19.87
2023-01-01T10:35:13.570Z,19.47
2023-01-01T10:37:42.226Z,20.10
2023-01-01T10:40:18.091Z,19.37
2023-01-01T10:42:49.710Z,19.43
2023-01-01T10:45:25.374Z,19.00
2023-01-01T10:48:17.652Z,20.00
2023-01-01T10:50:56.131Z,20.37
2023-01-01T10:53:30.673Z,19.23
2023-01-01T10:56:04.875Z,20.83
2023-01-01T10:58:42.868Z,18.33
2023-01-01T11:01:14.479Z,18.37
2023-01-01T11:04:00.782Z,18.47
2023-01-01T11:06:32.867Z,16.80
2023-01-01T11:09:05.388Z,17.90
2023-01-01T11:11:40.869Z,15.53
2023-01-01T11:14:22.317Z,16.80
2023-01-01T11:16:52.589Z,15.30
2023-01-01T11:19:25.249Z,15.73
2023-01-01T11:21:53.375Z,14.53
2023-01-01T11:24:23.827Z,14.33
2023-01-01T11:26:55.234Z,14.50
2023-01-01T11:29:28.601Z,14.10
2023-01-01T11:32:00.972Z,13.57
2023-01-01T11:34:36.947Z,12.13
2023-01-01T11:37:29.190Z,11.63
2023-01-01T11:39:59.897Z,12.67
2023-01-01T11:42:30.037Z,12.87
2023-01-01T11:45:01.785Z,12.67
2023-01-01T11:47:35.859Z,12.97
2023-01-01T11:50:18.915Z,13.63
2023-01-01T11:52:49.306Z,13.50
2023-01-01T11:55:25.503Z,12.83
2023-01-01T11:58:02.129Z,13.53
2023-01-01T12:00:33.553Z,15.17
2023-01-01T12:03:13.248Z,15.23
2023-01-01T12:05:49.819Z,14.53
2023-01-01T12:08:26.744Z,12.73
2023-01-01T12:11:00.105Z,13.17
2023-01-01T12:13:32.143Z,12.53
2023-01-01T12:16:09.903Z,13.10
2023-01-01T12:18:47.482Z,12.90
2023-01-01T12:21:23.876Z,12.47
2023-01-01T12:23:52.045Z,12.50
2023-01-01T12:26:25.361Z,13.00
2023-01-01T12:29:15.742Z,13.10
2023-01-01T12:31:55.690Z,12.83
2023-01-01T12:34:32.036Z,12.60
2023-01-01T12:37:08.552Z,12.73
2023-01-01T12:40:29.605Z,12.93
2023-01-01T12:43:05.208Z,11.50
2023-01-01T12:46:09.780Z,11.50
2023-01-01T12:49:17.234Z,11.77
2023-01-01T12:51:54.637Z,11.20
2023-01-01T12:54:44.766Z,11.17
2023-01-01T12:57:19.096Z,11.37
2023-01-01T12:59:52.003Z,11.63
2023-01-01T13:02:23.639Z,11.60
2023-01-01T13:04:57.181Z,12.00
2023-01-01T13:07:31.642Z,15.03
2023-01-01T13:10:20.313Z,16.20
2023-01-01T13:12:49.260Z,13.67
2023-01-01T13:15:44.410Z,13.53
2023-01-01T13:18:22.577Z,14.00
2023-01-01T13:20:58.249Z,13.53
2023-01-01T13:23:53.538Z,14.87
2023-01-01T13:26:36.258Z,14.53
2023-01-01T13:29:44.044Z,13.23
2023-01-01T13:32:14.330Z,14.03
2023-01-01T13:35:06.003Z,13.83
2023-01-01T13:37:51.671Z,12.17
2023-01-01T13:40:54.238Z,12.10
2023-01-01T13:43:32.046Z,12.03
2023-01-01T13:46:13.072Z,13.63
2023-01-01T13:49:08.487Z,13.17
2023-01-01T13:52:05.925Z,12.57
2023-01-01T13:55:23.030Z,13.57
2023-01-01T13:58:20.957Z,13.90
2023-01-01T14:01:09.702Z,14.70
2023-01-01T14:03:43.204Z,15.87
2023-01-01T14:06:16.272Z,14.03
2023-01-01T14:08:44.765Z,15.33
2023-01-01T14:11:24.917Z,15.27
2023-01-01T14:13:54.530Z,14.77
2023-01-01T14:16:22.802Z,15.07
2023-01-01T14:18:54.489Z,14.93
2023-01-01T14:21:25.095Z,15.73
2023-01-01T14:23:56.382Z,16.40
2023-01-01T14:26:28.111Z,15.27
2023-01-01T14:28:59.991Z,15.63
2023-01-01T14:31:31.465Z,16.17
2023-01-01T14:33:59.689Z,17.30
2023-01-01T14:36:29.616Z,16.47
2023-01-01T14:39:00.901Z,16.20
2023-01-01T14:41:30.855Z,16.93
2023-01-01T14:44:05.905Z,17.10
2023-01-01T14:46:34.918Z,17.27
2023-01-01T14:49:09.691Z,15.23
2023-01-01T14:51:44.366Z,16.07
2023-01-01T14:54:19.627Z,15.93
2023-01-01T14:56:50.022Z,16.43
2023-01-01T14:59:25.349Z,17.43
2023-01-01T15:02:01.874Z,16.17
2023-01-01T15:04:31.116Z,17.87
2023-01-01T15:07:02.025Z,17.33
2023-01-01T15:09:32.484Z,18.57
2023-01-01T15:12:01.902Z,18.73
2023-01-01T15:14:38.538Z,18.03
2023-01-01T15:17:08.759Z,22.40
2023-01-01T15:19:41.195Z,22.97
2023-01-01T15:22:17.205Z,24.23
2023-01-01T15:24:47.185Z,26.90
2023-01-01T15:27:24.496Z,26.17
2023-01-01T15:29:56.736Z,24.40
2023-01-01T15:32:28.178Z,21.53
2023-01-01T15:34:57.984Z,20.70
2023-01-01T15:37:34.118Z,19.87
2023-01-01T15:40:05.422Z,26.60
2023-01-01T15:42:36.080Z,23.47
2023-01-01T15:45:21.511Z,23.10
2023-01-01T15:47:51.125Z,18.80
2023-01-01T15:50:25.153Z,21.33
2023-01-01T15:52:57.049Z,21.87
2023-01-01T15:55:27.840Z,24.57
2023-01-01T15:57:57.389Z,26.00
2023-01-01T16:00:30.516Z,26.10
2023-01-01T16:03:05.176Z,25.17
2023-01-01T16:05:33.487Z,24.63
2023-01-01T16:08:03.803Z,23.77
2023-01-01T16:10:32.982Z,27.27
2023-01-01T16:13:01.128Z,25.40
2023-01-01T16:15:30.783Z,31.17
2023-01-01T16:17:59.078Z,31.80
2023-01-01T16:20:27.732Z,29.23
2023-01-01T16:22:56.013Z,28.73
2023-01-01T16:25:24.472Z,30.57
2023-01-01T16:27:52.635Z,38.10
2023-01-01T16:30:20.942Z,32.93
2023-01-01T16:32:50.537Z,30.00
2023-01-01T16:35:18.640Z,30.20
2023-01-01T16:37:46.781Z,32.47
2023-01-01T16:40:15.631Z,30.43
2023-01-01T16:42:43.840Z,28.10
2023-01-01T16:45:19.008Z,25.00
2023-01-01T16:47:47.637Z,30.00
2023-01-01T16:50:17.247Z,29.73
2023-01-01T16:52:45.721Z,26.87
2023-01-01T16:55:14.342Z,27.63
2023-01-01T16:57:43.642Z,27.43
2023-01-01T17:00:13.300Z,29.43
2023-01-01T17:02:41.820Z,35.53
2023-01-01T17:05:11.125Z,34.37
2023-01-01T17:07:40.690Z,34.67
2023-01-01T17:10:09.569Z,35.97
2023-01-01T17:12:37.825Z,34.87
2023-01-01T17:15:06.950Z,46.53
2023-01-01T17:17:35.050Z,48.53
2023-01-01T17:20:03.309Z,51.10
2023-01-01T17:22:34.405Z,53.57
2023-01-01T17:25:04.187Z,58.03
2023-01-01T17:27:32.273Z,57.20
2023-01-01T17:30:00.529Z,60.40
2023-01-01T17:32:28.816Z,67.43
2023-01-01T17:34:56.944Z,65.63
2023-01-01T17:37:25.013Z,66.13
2023-01-01T17:39:53.333Z,63.43
2023-01-01T17:42:22.997Z,59.60
2023-01-01T17:44:51.105Z,56.40
2023-01-01T17:47:19.307Z,67.57
2023-01-01T17:49:48.672Z,69.10
2023-01-01T17:52:16.965Z,68.90
2023-01-01T17:54:45.378Z,75.03
2023-01-01T17:57:13.720Z,79.50
2023-01-01T17:59:43.374Z,95.13
2023-01-01T18:02:13.616Z,94.67
2023-01-01T18:04:41.843Z,93.93
2023-01-01T18:07:09.882Z,96.67
2023-01-01T18:09:38.481Z,85.87
2023-01-01T18:12:07.405Z,87.07
2023-01-01T18:14:39.368Z,79.73
2023-01-01T18:17:09.061Z,79.17
2023-01-01T18:19:39.069Z,74.40
2023-01-01T18:22:07.463Z,77.70
2023-01-01T18:24:35.940Z,68.57
2023-01-01T18:27:04.296Z,66.90
2023-01-01T18:29:32.534Z,59.50
2023-01-01T18:32:00.983Z,45.90
2023-01-01T18:34:30.597Z,52.07
2023-01-01T18:36:58.757Z,51.40
2023-01-01T18:39:29.312Z,48.77
2023-01-01T18:42:20.164Z,47.10
2023-01-01T18:44:48.431Z,43.23
2023-01-01T18:47:18.609Z,38.63
2023-01-01T18:49:51.286Z,42.77
2023-01-01T18:52:24.870Z,38.43
2023-01-01T18:55:01.007Z,39.63
2023-01-01T18:57:29.849Z,39.90
2023-01-01T19:00:00.561Z,40.83
2023-01-01T19:02:36.341Z,45.70
2023-01-01T19:05:24.724Z,46.23
2023-01-01T19:07:57.870Z,49.73
2023-01-01T19:10:27.118Z,46.27
2023-01-01T19:12:56.310Z,47.80
2023-01-01T19:15:24.701Z,44.73
2023-01-01T19:17:54.805Z,50.97
2023-01-01T19:20:25.323Z,51.30
2023-01-01T19:22:53.438Z,43.83
2023-01-01T19:25:37.042Z,41.50
2023-01-01T19:28:36.073Z,46.37
2023-01-01T19:31:06.844Z,46.00
2023-01-01T19:33:35.060Z,44.43
2023-01-01T19:36:04.925Z,51.73
2023-01-01T19:38:33.072Z,59.00
2023-01-01T19:41:07.139Z,56.90
2023-01-01T19:43:35.374Z,62.83
2023-01-01T19:46:03.862Z,56.57
2023-01-01T19:48:32.184Z,46.13
2023-01-01T19:51:00.614Z,43.47
2023-01-01T19:53:30.083Z,46.53
2023-01-01T19:55:58.266Z,47.20
2023-01-01T19:58:26.500Z,45.67
2023-01-01T20:00:54.677Z,47.87
2023-01-01T20:03:52.668Z,48.87
2023-01-01T20:06:12.238Z,48.50
2023-01-01T20:08:41.911Z,46.13
2023-01-01T20:11:10.089Z,44.83
2023-01-01T20:13:38.340Z,46.00
2023-01-01T20:16:07.084Z,48.33
2023-01-01T20:18:35.123Z,49.30
2023-01-01T20:21:26.072Z,64.27
2023-01-01T20:23:56.796Z,58.73
2023-01-01T20:26:26.152Z,57.07
2023-01-01T20:29:12.090Z,60.83
2023-01-01T20:31:40.653Z,63.73
2023-01-01T20:34:10.064Z,59.50
2023-01-01T20:36:56.486Z,59.33
2023-01-01T20:39:28.346Z,57.60
2023-01-01T20:41:58.650Z,55.50
2023-01-01T20:44:30.199Z,57.90
2023-01-01T20:47:00.742Z,57.83
2023-01-01T20:49:32.069Z,54.57
2023-01-01T20:52:01.878Z,53.50
2023-01-01T20:54:33.432Z,50.77
2023-01-01T20:57:07.123Z,45.30
2023-01-01T20:59:38.296Z,46.57
2023-01-01T21:02:10.196Z,42.47
2023-01-01T21:04:43.647Z,41.73
2023-01-01T21:07:15.134Z,42.40
2023-01-01T21:09:47.177Z,43.07
2023-01-01T21:12:16.473Z,41.30
2023-01-01T21:14:45.656Z,43.13
2023-01-01T21:17:23.716Z,45.03
2023-01-01T21:19:55.701Z,41.47
2023-01-01T21:22:24.153Z,42.00
2023-01-01T21:24:55.474Z,44.20
2023-01-01T21:27:34.624Z,43.33
2023-01-01T21:30:02.914Z,41.37
2023-01-01T21:32:38.462Z,39.50
2023-01-01T21:35:17.745Z,39.00
2023-01-01T21:37:50.203Z,36.67
2023-01-01T21:40:45.461Z,34.80
2023-01-01T21:43:38.842Z,30.63
2023-01-01T21:46:20.054Z,32.40
2023-01-01T21:48:56.716Z,32.03
2023-01-01T21:51:26.285Z,32.10
2023-01-01T21:54:03.304Z,31.67
2023-01-01T21:56:36.759Z,31.60
2023-01-01T21:59:28.533Z,33.50
2023-01-01T22:02:34.396Z,33.93
2023-01-01T22:05:17.159Z,39.10
2023-01-01T22:07:57.520Z,42.47
2023-01-01T22:10:31.021Z,43.03
2023-01-01T22:13:01.648Z,44.23
2023-01-01T22:15:35.467Z,42.83
2023-01-01T22:18:19.006Z,44.30
2023-01-01T22:20:48.104Z,41.30
2023-01-01T22:23:29.221Z,43.87
2023-01-01T22:25:57.250Z,45.10
2023-01-01T22:28:28.718Z,46.03
2023-01-01T22:31:00.013Z,47.13
2023-01-01T22:33:38.483Z,46.90
2023-01-01T22:36:15.043Z,47.90
2023-01-01T22:38:43.365Z,47.63
2023-01-01T22:41:11.623Z,48.10
2023-01-01T22:43:44.098Z,48.27
2023-01-01T22:46:18.041Z,46.67
2023-01-01T22:48:46.355Z,47.10
2023-01-01T22:51:20.778Z,46.93
2023-01-01T22:53:48.972Z,46.63
2023-01-01T22:56:17.052Z,47.13
2023-01-01T22:58:49.241Z,46.90
2023-01-01T23:01:21.385Z,44.93
2023-01-01T23:03:49.605Z,43.97
2023-01-01T23:06:19.150Z,43.50
2023-01-01T23:08:48.098Z,43.43
2023-01-01T23:11:16.300Z,43.97
2023-01-01T23:14:04.904Z,43.33
2023-01-01T23:16:34.474Z,41.57
2023-01-01T23:19:02.623Z,42.07
2023-01-01T23:21:32.735Z,43.00
2023-01-01T23:24:03.986Z,40.87
2023-01-01T23:26:32.493Z,42.67
2023-01-01T23:29:00.675Z,42.63
2023-01-01T23:31:29.484Z,40.00
2023-01-01T23:34:00.539Z,42.17
2023-01-01T23:36:29.653Z,42.20
2023-01-01T23:38:58.343Z,40.30
2023-01-01T23:41:26.785Z,40.67
2023-01-01T23:43:54.779Z,38.90
2023-01-01T23:46:23.088Z,38.67
2023-01-01T23:48:53.881Z,37.43
2023-01-01T23:51:23.565Z,35.50
2023-01-01T23:53:51.571Z,36.53
2023-01-01T23:56:20.141Z,35.97
2023-01-01T23:58:48.251Z,36.53
